sensor_id;sensor_type;location;lat;lon;timestamp;pressure;altitude;pressure_sealevel;temperature;humidity
15056;BME280;7626;42.674;23.284;2024-01-16T00:01:25;93258.16;;;8.44;nan
15056;BME280;7626;42.674;23.284;2024-01-16T00:03:53;93262.72;;;8.40;nan
15056;BME280;7626;42.674;23.284;2024-01-16T00:06:21;93286.56;;;8.44;nan
15056;BME280;7626;42.674;23.284;2024-01-16T00:08:49;93274.59;;;8.43;nan
15056;BME280;7626;42.674;23.284;2024-01-16T00:11:20;93262.47;;;8.43;nan
15056;BME280;7626;42.674;23.284;2024-01-16T00:13:48;93279.06;;;8.41;nan
15056;BME280;7626;42.674;23.284;2024-01-16T00:16:18;93265.06;;;8.43;nan
15056;BME280;7626;42.674;23.284;2024-01-16T00:18:46;93265.31;;;8.40;nan
15056;BME280;7626;42.674;23.284;2024-01-16T00:21:14;93277.16;;;8.43;nan
15056;BME280;7626;42.674;23.284;2024-01-16T00:23:42;93286.41;;;8.45;nan
15056;BME280;7626;42.674;23.284;2024-01-16T00:26:20;93274.19;;;8.47;nan
15056;BME280;7626;42.674;23.284;2024-01-16T00:28:48;93272.69;;;8.45;nan
15056;BME280;7626;42.674;23.284;2024-01-16T00:31:19;93267.66;;;8.43;nan
15056;BME280;7626;42.674;23.284;2024-01-16T00:33:48;93284.22;;;8.41;nan
15056;BME280;7626;42.674;23.284;2024-01-16T00:36:18;93283.38;;;8.40;nan
15056;BME280;7626;42.674;23.284;2024-01-16T00:38:49;93283.25;;;8.42;nan
15056;BME280;7626;42.674;23.284;2024-01-16T00:41:17;93278.22;;;8.40;nan
15056;BME280;7626;42.674;23.284;2024-01-16T00:43:45;93290.75;;;8.45;nan
15056;BME280;7626;42.674;23.284;2024-01-16T00:46:17;93295.09;;;8.44;nan
15056;BME280;7626;42.674;23.284;2024-01-16T00:48:48;93295.66;;;8.48;nan
15056;BME280;7626;42.674;23.284;2024-01-16T00:51:18;93297.56;;;8.46;nan
15056;BME280;7626;42.674;23.284;2024-01-16T00:53:49;93289.66;;;8.47;nan
15056;BME280;7626;42.674;23.284;2024-01-16T00:56:17;93284.66;;;8.46;nan
15056;BME280;7626;42.674;23.284;2024-01-16T00:58:46;93310.19;;;8.39;nan
15056;BME280;7626;42.674;23.284;2024-01-16T01:01:14;93305.97;;;8.38;nan
15056;BME280;7626;42.674;23.284;2024-01-16T01:03:43;93318.72;;;8.40;nan
15056;BME280;7626;42.674;23.284;2024-01-16T01:06:12;93329.50;;;8.45;nan
15056;BME280;7626;42.674;23.284;2024-01-16T01:08:40;93317.25;;;8.37;nan
15056;BME280;7626;42.674;23.284;2024-01-16T01:11:08;93318.06;;;8.38;nan
15056;BME280;7626;42.674;23.284;2024-01-16T01:13:36;93307.59;;;8.39;nan
15056;BME280;7626;42.674;23.284;2024-01-16T01:16:04;93310.97;;;8.40;nan
15056;BME280;7626;42.674;23.284;2024-01-16T01:18:33;93315.06;;;8.42;nan
15056;BME280;7626;42.674;23.284;2024-01-16T01:21:08;93313.31;;;8.23;nan
15056;BME280;7626;42.674;23.284;2024-01-16T01:23:36;93300.66;;;8.30;nan
15056;BME280;7626;42.674;23.284;2024-01-16T01:26:05;93307.34;;;8.33;nan
15056;BME280;7626;42.674;23.284;2024-01-16T01:28:33;93314.41;;;8.31;nan
15056;BME280;7626;42.674;23.284;2024-01-16T01:31:02;93315.50;;;8.28;nan
15056;BME280;7626;42.674;23.284;2024-01-16T01:33:30;93301.66;;;8.19;nan
15056;BME280;7626;42.674;23.284;2024-01-16T01:36:01;93320.94;;;8.25;nan
15056;BME280;7626;42.674;23.284;2024-01-16T01:38:30;93297.00;;;8.33;nan
15056;BME280;7626;42.674;23.284;2024-01-16T01:40:57;93294.97;;;8.36;nan
15056;BME280;7626;42.674;23.284;2024-01-16T01:43:26;93291.00;;;8.32;nan
15056;BME280;7626;42.674;23.284;2024-01-16T01:46:09;93294.16;;;8.36;nan
15056;BME280;7626;42.674;23.284;2024-01-16T01:48:38;93297.13;;;8.41;nan
15056;BME280;7626;42.674;23.284;2024-01-16T01:51:08;93288.41;;;8.42;nan
15056;BME280;7626;42.674;23.284;2024-01-16T01:53:39;93305.31;;;8.46;nan
15056;BME280;7626;42.674;23.284;2024-01-16T01:56:11;93299.03;;;8.48;nan
15056;BME280;7626;42.674;23.284;2024-01-16T01:58:43;93292.41;;;8.46;nan
15056;BME280;7626;42.674;23.284;2024-01-16T02:01:13;93289.25;;;8.33;nan
15056;BME280;7626;42.674;23.284;2024-01-16T02:03:43;93308.81;;;8.35;nan
15056;BME280;7626;42.674;23.284;2024-01-16T02:06:12;93296.88;;;8.44;nan
15056;BME280;7626;42.674;23.284;2024-01-16T02:08:44;93303.91;;;8.52;nan
15056;BME280;7626;42.674;23.284;2024-01-16T02:11:12;93299.84;;;8.39;nan
15056;BME280;7626;42.674;23.284;2024-01-16T02:13:41;93316.56;;;8.45;nan
15056;BME280;7626;42.674;23.284;2024-01-16T02:16:18;93307.34;;;8.52;nan
15056;BME280;7626;42.674;23.284;2024-01-16T02:18:48;93311.41;;;8.55;nan
15056;BME280;7626;42.674;23.284;2024-01-16T02:21:21;93317.53;;;8.34;nan
15056;BME280;7626;42.674;23.284;2024-01-16T02:23:51;93321.59;;;8.37;nan
15056;BME280;7626;42.674;23.284;2024-01-16T02:26:21;93337.09;;;8.46;nan
15056;BME280;7626;42.674;23.284;2024-01-16T02:28:52;93338.19;;;8.54;nan
15056;BME280;7626;42.674;23.284;2024-01-16T02:31:22;93320.78;;;8.56;nan
15056;BME280;7626;42.674;23.284;2024-01-16T02:33:53;93330.00;;;8.58;nan
15056;BME280;7626;42.674;23.284;2024-01-16T02:36:21;93325.53;;;8.60;nan
15056;BME280;7626;42.674;23.284;2024-01-16T02:38:51;93329.59;;;8.63;nan
15056;BME280;7626;42.674;23.284;2024-01-16T02:41:19;93327.97;;;8.62;nan
15056;BME280;7626;42.674;23.284;2024-01-16T02:43:48;93347.69;;;8.63;nan
15056;BME280;7626;42.674;23.284;2024-01-16T02:46:16;93352.72;;;8.64;nan
15056;BME280;7626;42.674;23.284;2024-01-16T02:48:45;93366.44;;;8.65;nan
15056;BME280;7626;42.674;23.284;2024-01-16T02:51:13;93388.88;;;8.64;nan
15056;BME280;7626;42.674;23.284;2024-01-16T02:53:42;93406.69;;;8.68;nan
15056;BME280;7626;42.674;23.284;2024-01-16T02:56:12;93406.97;;;8.64;nan
15056;BME280;7626;42.674;23.284;2024-01-16T02:58:40;93408.47;;;8.67;nan
15056;BME280;7626;42.674;23.284;2024-01-16T03:01:08;93406.69;;;8.68;nan
15056;BME280;7626;42.674;23.284;2024-01-16T03:03:38;93416.63;;;8.72;nan
15056;BME280;7626;42.674;23.284;2024-01-16T03:06:06;93424.38;;;8.72;nan
15056;BME280;7626;42.674;23.284;2024-01-16T03:08:34;93438.34;;;8.70;nan
15056;BME280;7626;42.674;23.284;2024-01-16T03:11:02;93437.16;;;8.74;nan
15056;BME280;7626;42.674;23.284;2024-01-16T03:13:36;93447.75;;;8.61;nan
15056;BME280;7626;42.674;23.284;2024-01-16T03:16:06;93457.28;;;8.60;nan
15056;BME280;7626;42.674;23.284;2024-01-16T03:18:35;93461.34;;;8.63;nan
15056;BME280;7626;42.674;23.284;2024-01-16T03:21:03;93468.16;;;8.64;nan
15056;BME280;7626;42.674;23.284;2024-01-16T03:23:34;93472.22;;;8.57;nan
15056;BME280;7626;42.674;23.284;2024-01-16T03:26:03;93482.28;;;8.60;nan
15056;BME280;7626;42.674;23.284;2024-01-16T03:28:33;93481.31;;;8.51;nan
15056;BME280;7626;42.674;23.284;2024-01-16T03:31:02;93500.34;;;8.60;nan
15056;BME280;7626;42.674;23.284;2024-01-16T03:33:32;93492.06;;;8.56;nan
15056;BME280;7626;42.674;23.284;2024-01-16T03:36:01;93502.28;;;8.58;nan
15056;BME280;7626;42.674;23.284;2024-01-16T03:38:30;93507.69;;;8.55;nan
15056;BME280;7626;42.674;23.284;2024-01-16T03:41:00;93520.75;;;8.53;nan
15056;BME280;7626;42.674;23.284;2024-01-16T03:43:28;93518.16;;;8.53;nan
15056;BME280;7626;42.674;23.284;2024-01-16T03:45:58;93532.94;;;8.41;nan
15056;BME280;7626;42.674;23.284;2024-01-16T03:48:26;93540.59;;;8.43;nan
15056;BME280;7626;42.674;23.284;2024-01-16T03:50:55;93529.72;;;8.49;nan
15056;BME280;7626;42.674;23.284;2024-01-16T03:53:25;93534.72;;;8.41;nan
15056;BME280;7626;42.674;23.284;2024-01-16T03:55:53;93545.50;;;8.46;nan
15056;BME280;7626;42.674;23.284;2024-01-16T03:58:21;93557.16;;;8.50;nan
15056;BME280;7626;42.674;23.284;2024-01-16T04:00:49;93572.78;;;8.48;nan
15056;BME280;7626;42.674;23.284;2024-01-16T04:03:21;93572.53;;;8.52;nan
15056;BME280;7626;42.674;23.284;2024-01-16T04:05:52;93582.59;;;8.55;nan
15056;BME280;7626;42.674;23.284;2024-01-16T04:08:20;93582.88;;;8.52;nan
15056;BME280;7626;42.674;23.284;2024-01-16T04:10:48;93599.88;;;8.54;nan
15056;BME280;7626;42.674;23.284;2024-01-16T04:13:16;93611.56;;;8.58;nan
15056;BME280;7626;42.674;23.284;2024-01-16T04:15:46;93600.31;;;8.59;nan
15056;BME280;7626;42.674;23.284;2024-01-16T04:18:15;93597.28;;;8.44;nan
15056;BME280;7626;42.674;23.284;2024-01-16T04:20:45;93607.22;;;8.49;nan
15056;BME280;7626;42.674;23.284;2024-01-16T04:23:13;93613.25;;;8.38;nan
15056;BME280;7626;42.674;23.284;2024-01-16T04:25:41;93625.88;;;8.32;nan
15056;BME280;7626;42.674;23.284;2024-01-16T04:28:09;93634.03;;;8.37;nan
15056;BME280;7626;42.674;23.284;2024-01-16T04:30:38;93636.00;;;8.44;nan
15056;BME280;7626;42.674;23.284;2024-01-16T04:33:06;93639.59;;;8.32;nan
15056;BME280;7626;42.674;23.284;2024-01-16T04:35:35;93646.81;;;8.38;nan
15056;BME280;7626;42.674;23.284;2024-01-16T04:38:09;93649.22;;;8.51;nan
15056;BME280;7626;42.674;23.284;2024-01-16T04:40:37;93647.19;;;8.55;nan
15056;BME280;7626;42.674;23.284;2024-01-16T04:43:05;93660.66;;;8.58;nan
15056;BME280;7626;42.674;23.284;2024-01-16T04:45:33;93678.44;;;8.52;nan
15056;BME280;7626;42.674;23.284;2024-01-16T04:48:02;93691.69;;;8.37;nan
15056;BME280;7626;42.674;23.284;2024-01-16T04:50:40;93701.31;;;8.35;nan
15056;BME280;7626;42.674;23.284;2024-01-16T04:53:09;93710.44;;;8.39;nan
15056;BME280;7626;42.674;23.284;2024-01-16T04:55:38;93715.44;;;8.52;nan
15056;BME280;7626;42.674;23.284;2024-01-16T04:58:06;93721.84;;;8.58;nan
15056;BME280;7626;42.674;23.284;2024-01-16T05:00:34;93726.31;;;8.56;nan
15056;BME280;7626;42.674;23.284;2024-01-16T05:03:03;93726.31;;;8.56;nan
15056;BME280;7626;42.674;23.284;2024-01-16T05:05:35;93734.41;;;9.03;nan
15056;BME280;7626;42.674;23.284;2024-01-16T05:08:02;93738.91;;;8.70;nan
15056;BME280;7626;42.674;23.284;2024-01-16T05:10:33;58835.63;;;-147.83;100.00
15056;BME280;7626;42.674;23.284;2024-01-16T05:13:00;58835.63;;;-147.83;100.00
15056;BME280;7626;42.674;23.284;2024-01-16T05:15:28;58835.63;;;-147.83;100.00
15056;BME280;7626;42.674;23.284;2024-01-16T05:17:56;93774.78;;;8.63;nan
15056;BME280;7626;42.674;23.284;2024-01-16T05:20:23;93787.09;;;8.60;nan
15056;BME280;7626;42.674;23.284;2024-01-16T05:22:52;93793.84;;;8.30;nan
15056;BME280;7626;42.674;23.284;2024-01-16T05:25:19;93803.72;;;8.25;nan
15056;BME280;7626;42.674;23.284;2024-01-16T05:27:52;93817.56;;;8.24;nan
15056;BME280;7626;42.674;23.284;2024-01-16T05:30:19;93828.50;;;8.27;nan
15056;BME280;7626;42.674;23.284;2024-01-16T05:32:47;93828.50;;;8.27;nan
15056;BME280;7626;42.674;23.284;2024-01-16T05:35:15;93821.44;;;8.29;nan
15056;BME280;7626;42.674;23.284;2024-01-16T05:37:44;93827.09;;;8.23;nan
15056;BME280;7626;42.674;23.284;2024-01-16T05:40:11;93837.53;;;8.22;nan
15056;BME280;7626;42.674;23.284;2024-01-16T05:42:39;93854.47;;;8.15;nan
15056;BME280;7626;42.674;23.284;2024-01-16T05:45:09;93857.59;;;8.29;nan
15056;BME280;7626;42.674;23.284;2024-01-16T05:47:37;93862.19;;;8.26;nan
15056;BME280;7626;42.674;23.284;2024-01-16T05:50:06;93872.47;;;8.37;nan
15056;BME280;7626;42.674;23.284;2024-01-16T05:52:35;93882.31;;;8.43;nan
15056;BME280;7626;42.674;23.284;2024-01-16T05:55:04;93884.63;;;8.46;nan
15056;BME280;7626;42.674;23.284;2024-01-16T05:57:31;93890.16;;;8.42;nan
15056;BME280;7626;42.674;23.284;2024-01-16T06:00:00;93895.31;;;8.42;nan
15056;BME280;7626;42.674;23.284;2024-01-16T06:02:44;93895.31;;;8.42;nan
15056;BME280;7626;42.674;23.284;2024-01-16T06:05:12;93907.06;;;8.46;nan
15056;BME280;7626;42.674;23.284;2024-01-16T06:07:40;93900.03;;;8.48;nan
15056;BME280;7626;42.674;23.284;2024-01-16T06:10:08;93908.97;;;8.44;nan
15056;BME280;7626;42.674;23.284;2024-01-16T06:12:36;93916.03;;;8.31;nan
15056;BME280;7626;42.674;23.284;2024-01-16T06:15:05;93926.94;;;8.34;nan
15056;BME280;7626;42.674;23.284;2024-01-16T06:17:40;93947.59;;;8.45;nan
15056;BME280;7626;42.674;23.284;2024-01-16T06:20:09;93956.03;;;8.47;nan
15056;BME280;7626;42.674;23.284;2024-01-16T06:22:37;93962.13;;;8.46;nan
15056;BME280;7626;42.674;23.284;2024-01-16T06:25:05;93971.16;;;8.41;nan
15056;BME280;7626;42.674;23.284;2024-01-16T06:27:33;93979.84;;;8.40;nan
15056;BME280;7626;42.674;23.284;2024-01-16T06:30:00;93980.44;;;8.43;nan
15056;BME280;7626;42.674;23.284;2024-01-16T06:32:29;93976.00;;;8.34;nan
15056;BME280;7626;42.674;23.284;2024-01-16T06:34:59;93986.47;;;8.44;nan
15056;BME280;7626;42.674;23.284;2024-01-16T06:37:27;93999.69;;;8.51;nan
15056;BME280;7626;42.674;23.284;2024-01-16T06:39:56;94005.56;;;8.53;nan
15056;BME280;7626;42.674;23.284;2024-01-16T06:42:24;58835.63;;;-147.83;100.00
15056;BME280;7626;42.674;23.284;2024-01-16T06:44:52;94009.34;;;8.81;nan
15056;BME280;7626;42.674;23.284;2024-01-16T06:47:20;94022.81;;;8.63;nan
15056;BME280;7626;42.674;23.284;2024-01-16T06:49:47;94025.53;;;8.39;nan
15056;BME280;7626;42.674;23.284;2024-01-16T06:52:16;94034.31;;;8.37;nan
15056;BME280;7626;42.674;23.284;2024-01-16T06:54:47;94032.72;;;8.47;nan
15056;BME280;7626;42.674;23.284;2024-01-16T06:57:15;94044.91;;;8.45;nan
15056;BME280;7626;42.674;23.284;2024-01-16T06:59:43;94047.59;;;8.43;nan
15056;BME280;7626;42.674;23.284;2024-01-16T07:02:11;94051.03;;;8.44;nan
15056;BME280;7626;42.674;23.284;2024-01-16T07:04:39;94055.34;;;8.32;nan
15056;BME280;7626;42.674;23.284;2024-01-16T07:07:07;94053.63;;;8.44;nan
15056;BME280;7626;42.674;23.284;2024-01-16T07:09:39;94058.28;;;8.50;nan
15056;BME280;7626;42.674;23.284;2024-01-16T07:12:08;94077.44;;;8.47;nan
15056;BME280;7626;42.674;23.284;2024-01-16T07:14:36;94084.59;;;8.44;nan
15056;BME280;7626;42.674;23.284;2024-01-16T07:17:05;94091.84;;;8.50;nan
15056;BME280;7626;42.674;23.284;2024-01-16T07:19:35;94108.97;;;8.40;nan
15056;BME280;7626;42.674;23.284;2024-01-16T07:22:02;94110.75;;;8.39;nan
15056;BME280;7626;42.674;23.284;2024-01-16T07:24:31;94117.34;;;8.43;nan
15056;BME280;7626;42.674;23.284;2024-01-16T07:27:02;94117.97;;;8.47;nan
15056;BME280;7626;42.674;23.284;2024-01-16T07:29:29;94125.56;;;8.48;nan
15056;BME280;7626;42.674;23.284;2024-01-16T07:31:56;94132.34;;;8.38;nan
15056;BME280;7626;42.674;23.284;2024-01-16T07:34:24;94130.88;;;8.47;nan
15056;BME280;7626;42.674;23.284;2024-01-16T07:36:52;94136.84;;;8.47;nan
15056;BME280;7626;42.674;23.284;2024-01-16T07:39:20;94147.16;;;8.36;nan
15056;BME280;7626;42.674;23.284;2024-01-16T07:41:48;94154.91;;;8.36;nan
15056;BME280;7626;42.674;23.284;2024-01-16T07:44:16;94149.88;;;8.46;nan
15056;BME280;7626;42.674;23.284;2024-01-16T07:46:44;94158.78;;;8.53;nan
15056;BME280;7626;42.674;23.284;2024-01-16T07:49:13;94165.38;;;8.57;nan
15056;BME280;7626;42.674;23.284;2024-01-16T07:51:41;94171.34;;;8.58;nan
15056;BME280;7626;42.674;23.284;2024-01-16T07:54:10;94179.91;;;8.58;nan
